createdAt,value
2022-10-05T00:00:29.052Z,7.90
2022-10-05T00:01:29.135Z,7.73
2022-10-05T00:02:29.069Z,7.66
2022-10-05T00:03:29.034Z,7.57
2022-10-05T00:04:29.034Z,7.60
2022-10-05T00:05:29.054Z,7.59
2022-10-05T00:06:29.004Z,7.66
2022-10-05T00:07:29.025Z,7.53
2022-10-05T00:08:28.983Z,7.57
2022-10-05T00:09:28.986Z,7.62
2022-10-05T00:10:28.978Z,7.49
2022-10-05T00:11:28.967Z,7.54
2022-10-05T00:12:28.985Z,7.54
2022-10-05T00:13:28.947Z,7.62
2022-10-05T00:14:28.937Z,7.60
2022-10-05T00:15:28.928Z,7.56
2022-10-05T00:16:28.951Z,7.47
2022-10-05T00:17:28.939Z,7.56
2022-10-05T00:18:28.905Z,7.52
2022-10-05T00:19:28.894Z,7.52
2022-10-05T00:20:28.897Z,7.44
2022-10-05T00:21:28.897Z,7.41
2022-10-05T00:22:28.900Z,7.35
2022-10-05T00:23:28.857Z,7.32
2022-10-05T00:24:28.849Z,7.36
2022-10-05T00:25:28.833Z,7.28
2022-10-05T00:26:28.825Z,7.28
2022-10-05T00:27:28.853Z,7.23
2022-10-05T00:28:28.866Z,7.20
2022-10-05T00:29:28.803Z,7.26
2022-10-05T00:30:28.801Z,7.32
2022-10-05T00:31:28.812Z,7.20
2022-10-05T00:32:28.810Z,7.28
2022-10-05T00:33:28.781Z,7.29
2022-10-05T00:34:28.773Z,7.21
2022-10-05T00:35:28.764Z,7.23
2022-10-05T00:36:28.753Z,7.16
2022-10-05T00:37:28.785Z,7.16
2022-10-05T00:38:28.731Z,7.10
2022-10-05T00:39:28.728Z,7.23
2022-10-05T00:40:28.730Z,7.23
2022-10-05T00:41:28.711Z,7.08
2022-10-05T00:42:28.735Z,7.17
2022-10-05T00:43:28.693Z,7.14
2022-10-05T00:44:28.690Z,7.23
2022-10-05T00:45:28.764Z,7.13
2022-10-05T00:46:28.670Z,7.16
2022-10-05T00:47:28.687Z,7.17
2022-10-05T00:48:28.662Z,7.16
2022-10-05T00:49:28.640Z,7.34
2022-10-05T00:50:28.641Z,7.21
2022-10-05T00:51:28.627Z,7.23
2022-10-05T00:52:28.648Z,7.21
2022-10-05T00:53:28.611Z,7.07
2022-10-05T00:54:28.604Z,7.13
2022-10-05T00:55:28.594Z,7.20
2022-10-05T00:56:28.587Z,7.17
2022-10-05T00:57:28.617Z,7.25
2022-10-05T00:58:28.573Z,7.21
2022-10-05T00:59:28.567Z,7.25
2022-10-05T01:00:28.552Z,7.21
2022-10-05T01:01:28.667Z,7.25
2022-10-05T01:02:31.876Z,7.21
2022-10-05T01:03:29.549Z,7.16
2022-10-05T01:04:28.525Z,7.16
2022-10-05T01:05:28.514Z,7.25
2022-10-05T01:06:28.500Z,7.23
2022-10-05T01:07:28.486Z,7.23
2022-10-05T01:08:28.521Z,7.16
2022-10-05T01:09:28.496Z,7.23
2022-10-05T01:10:28.475Z,7.25
2022-10-05T01:11:28.457Z,7.25
2022-10-05T01:12:28.454Z,7.23
2022-10-05T01:13:28.463Z,7.28
2022-10-05T01:14:29.448Z,7.13
2022-10-05T01:15:28.435Z,7.17
2022-10-05T01:16:28.457Z,7.14
2022-10-05T01:17:28.407Z,7.14
2022-10-05T01:18:28.428Z,7.07
2022-10-05T01:19:28.392Z,7.08
2022-10-05T01:20:28.383Z,7.17
2022-10-05T01:21:28.373Z,7.14
2022-10-05T01:22:28.357Z,7.25
2022-10-05T01:23:28.389Z,7.13
2022-10-05T01:24:28.346Z,7.11
2022-10-05T01:25:28.336Z,7.07
2022-10-05T01:26:28.323Z,7.08
2022-10-05T01:27:28.321Z,7.08
2022-10-05T01:28:28.457Z,7.13
2022-10-05T01:29:28.346Z,7.07
2022-10-05T01:30:28.292Z,7.16
2022-10-05T01:31:28.381Z,7.02
2022-10-05T01:32:28.285Z,7.18
2022-10-05T01:33:28.272Z,7.18
2022-10-05T01:34:28.292Z,7.16
2022-10-05T01:35:28.262Z,7.17
2022-10-05T01:36:28.245Z,7.23
2022-10-05T01:37:28.267Z,7.14
2022-10-05T01:38:28.265Z,7.20
2022-10-05T01:39:28.228Z,7.17
2022-10-05T01:40:28.214Z,7.25
2022-10-05T01:41:28.198Z,7.28
2022-10-05T01:42:28.194Z,7.34
2022-10-05T01:43:28.213Z,7.23
2022-10-05T01:44:28.183Z,7.28
2022-10-05T01:45:28.217Z,7.25
2022-10-05T01:46:28.164Z,7.31
2022-10-05T01:47:28.163Z,7.13
2022-10-05T01:48:28.181Z,7.18
2022-10-05T01:49:28.145Z,7.17
2022-10-05T01:50:28.134Z,7.07
2022-10-05T01:51:28.130Z,7.10
2022-10-05T01:52:28.113Z,7.00
2022-10-05T01:53:28.148Z,6.96
2022-10-05T01:54:28.115Z,6.93
2022-10-05T01:55:28.087Z,6.92
2022-10-05T01:56:28.080Z,6.92
2022-10-05T01:57:28.076Z,6.78
2022-10-05T01:58:28.097Z,6.88
2022-10-05T01:59:28.061Z,6.78
2022-10-05T02:00:28.048Z,6.78
2022-10-05T02:01:28.095Z,6.75
2022-10-05T02:02:28.076Z,6.74
2022-10-05T02:03:28.067Z,6.73
2022-10-05T02:04:59.882Z,6.71
2022-10-05T02:05:30.015Z,6.67
2022-10-05T02:06:28.007Z,6.70
2022-10-05T02:07:27.998Z,6.57
2022-10-05T02:08:28.016Z,6.59
2022-10-05T02:09:27.982Z,6.57
2022-10-05T02:10:27.968Z,6.59
2022-10-05T02:11:27.970Z,6.63
2022-10-05T02:12:27.950Z,6.56
2022-10-05T02:13:27.977Z,6.63
2022-10-05T02:14:27.937Z,6.73
2022-10-05T02:15:27.931Z,6.70
2022-10-05T02:16:27.920Z,6.73
2022-10-05T02:17:27.938Z,6.74
2022-10-05T02:18:27.931Z,6.67
2022-10-05T02:19:27.890Z,6.77
2022-10-05T02:20:27.881Z,6.77
2022-10-05T02:21:27.885Z,6.89
2022-10-05T02:22:27.859Z,6.98
2022-10-05T02:23:27.876Z,6.95
2022-10-05T02:24:28.873Z,7.07
2022-10-05T02:25:27.834Z,7.10
2022-10-05T02:26:27.836Z,7.25
2022-10-05T02:27:27.821Z,7.14
2022-10-05T02:28:27.912Z,7.23
2022-10-05T02:29:27.803Z,7.28
2022-10-05T02:30:27.794Z,7.26
2022-10-05T02:31:27.832Z,7.16
2022-10-05T02:32:27.776Z,7.25
2022-10-05T02:33:27.794Z,7.23
2022-10-05T02:34:27.767Z,7.25
2022-10-05T02:35:27.753Z,7.18
2022-10-05T02:36:27.743Z,7.21
2022-10-05T02:37:27.744Z,7.03
2022-10-05T02:38:27.771Z,6.96
2022-10-05T02:39:27.721Z,6.96
2022-10-05T02:40:27.708Z,6.85
2022-10-05T02:41:27.702Z,6.85
2022-10-05T02:42:27.691Z,6.75
2022-10-05T02:43:27.711Z,6.80
2022-10-05T02:44:27.680Z,6.73
2022-10-05T02:45:27.666Z,6.77
2022-10-05T02:46:28.655Z,6.83
2022-10-05T02:47:27.657Z,6.84
2022-10-05T02:48:27.670Z,6.88
2022-10-05T02:49:27.652Z,6.75
2022-10-05T02:50:27.634Z,6.78
2022-10-05T02:51:27.635Z,6.78
2022-10-05T02:52:27.637Z,6.73
2022-10-05T02:53:27.635Z,6.77
2022-10-05T02:54:27.595Z,6.77
2022-10-05T02:55:27.594Z,6.75
2022-10-05T02:56:27.574Z,6.71
2022-10-05T02:57:27.577Z,6.75
2022-10-05T02:58:27.603Z,6.75
2022-10-05T02:59:27.555Z,6.67
2022-10-05T03:00:27.542Z,6.67
2022-10-05T03:01:27.598Z,6.66
2022-10-05T03:02:27.601Z,6.73
2022-10-05T03:03:27.549Z,6.59
2022-10-05T03:04:27.520Z,6.59
2022-10-05T03:05:27.504Z,6.45
2022-10-05T03:06:27.500Z,6.52
2022-10-05T03:07:27.495Z,6.42
2022-10-05T03:08:27.511Z,6.41
2022-10-05T03:09:27.477Z,6.53
2022-10-05T03:10:27.466Z,6.55
2022-10-05T03:11:27.468Z,6.57
2022-10-05T03:12:27.452Z,6.55
2022-10-05T03:13:27.471Z,6.65
2022-10-05T03:14:27.429Z,6.60
2022-10-05T03:15:27.418Z,6.59
2022-10-05T03:16:27.498Z,6.52
2022-10-05T03:17:27.409Z,6.59
2022-10-05T03:18:30.591Z,6.41
2022-10-05T03:19:28.383Z,6.39
2022-10-05T03:20:27.381Z,6.47
2022-10-05T03:21:27.376Z,6.41
2022-10-05T03:22:27.364Z,6.44
2022-10-05T03:23:27.396Z,6.32
2022-10-05T03:24:27.353Z,6.29
2022-10-05T03:25:27.346Z,6.27
2022-10-05T03:26:27.327Z,6.22
2022-10-05T03:27:27.322Z,6.19
2022-10-05T03:28:27.367Z,6.22
2022-10-05T03:29:27.334Z,6.15
2022-10-05T03:30:27.290Z,6.29
2022-10-05T03:31:27.334Z,6.30
2022-10-05T03:32:27.285Z,6.30
2022-10-05T03:33:27.279Z,6.37
2022-10-05T03:34:27.293Z,6.38
2022-10-05T03:35:27.251Z,6.41
2022-10-05T03:36:27.245Z,6.45
2022-10-05T03:37:27.234Z,6.53
2022-10-05T03:38:27.226Z,6.60
2022-10-05T03:39:27.249Z,6.49
2022-10-05T03:40:27.210Z,6.59
2022-10-05T03:41:27.194Z,6.62
2022-10-05T03:42:28.200Z,6.62
2022-10-05T03:43:27.193Z,6.56
2022-10-05T03:44:27.212Z,6.66
2022-10-05T03:45:27.180Z,6.70
2022-10-05T03:46:27.195Z,6.71
2022-10-05T03:47:27.174Z,6.55
2022-10-05T03:48:27.152Z,6.63
2022-10-05T03:49:27.172Z,6.57
2022-10-05T03:50:27.136Z,6.62
2022-10-05T03:51:27.121Z,6.65
2022-10-05T03:52:27.112Z,6.60
2022-10-05T03:53:27.100Z,6.60
2022-10-05T03:54:27.121Z,6.56
2022-10-05T03:55:27.082Z,6.52
2022-10-05T03:56:27.075Z,6.49
2022-10-05T03:57:27.070Z,6.37
2022-10-05T03:58:27.056Z,6.30
2022-10-05T03:59:32.274Z,6.34
2022-10-05T04:00:29.038Z,6.26
2022-10-05T04:01:27.095Z,6.24
2022-10-05T04:02:27.062Z,6.24
2022-10-05T04:03:27.022Z,6.18
2022-10-05T04:04:27.099Z,6.10
2022-10-05T04:05:27.005Z,5.95
2022-10-05T04:06:26.988Z,5.97
2022-10-05T04:07:26.974Z,6.01
2022-10-05T04:08:26.968Z,5.95
2022-10-05T04:09:26.994Z,5.90
2022-10-05T04:10:27.028Z,5.80
2022-10-05T04:11:26.952Z,5.79
2022-10-05T04:12:26.939Z,5.68
2022-10-05T04:13:26.929Z,5.74
2022-10-05T04:14:26.952Z,5.67
2022-10-05T04:15:26.915Z,5.68
2022-10-05T04:16:26.934Z,5.65
2022-10-05T04:17:26.899Z,5.67
2022-10-05T04:18:26.884Z,5.79
2022-10-05T04:19:26.909Z,5.74
2022-10-05T04:20:26.874Z,5.76
2022-10-05T04:21:26.876Z,5.69
2022-10-05T04:22:26.849Z,5.69
2022-10-05T04:23:26.840Z,5.65
2022-10-05T04:24:26.860Z,5.74
2022-10-05T04:25:26.822Z,5.79
2022-10-05T04:26:26.822Z,5.74
2022-10-05T04:27:26.799Z,5.92
2022-10-05T04:28:31.972Z,5.85
2022-10-05T04:29:27.832Z,5.85
2022-10-05T04:30:26.822Z,5.92
2022-10-05T04:31:26.803Z,5.90
2022-10-05T04:32:26.772Z,5.87
2022-10-05T04:33:26.755Z,5.98
2022-10-05T04:34:26.758Z,5.89
2022-10-05T04:35:26.773Z,6.05
2022-10-05T04:36:26.750Z,5.97
2022-10-05T04:37:26.724Z,6.08
2022-10-05T04:38:26.716Z,5.97
2022-10-05T04:39:26.707Z,6.01
2022-10-05T04:40:26.729Z,6.00
2022-10-05T04:41:26.709Z,5.92
2022-10-05T04:42:26.687Z,5.82
2022-10-05T04:43:26.676Z,5.85
2022-10-05T04:44:26.674Z,5.71
2022-10-05T04:45:26.679Z,5.80
2022-10-05T04:46:26.703Z,5.74
2022-10-05T04:47:26.651Z,5.68
2022-10-05T04:48:26.628Z,5.74
2022-10-05T04:49:26.628Z,5.71
2022-10-05T04:50:26.671Z,5.65
2022-10-05T04:51:26.608Z,5.59
2022-10-05T04:52:26.601Z,5.74
2022-10-05T04:53:26.591Z,5.65
2022-10-05T04:54:26.593Z,5.61
2022-10-05T04:55:26.606Z,5.74
2022-10-05T04:56:26.570Z,5.71
2022-10-05T04:57:26.566Z,5.71
2022-10-05T04:58:26.553Z,5.87
2022-10-05T04:59:26.545Z,5.71
2022-10-05T05:00:26.604Z,5.74
2022-10-05T05:01:26.550Z,5.74
2022-10-05T05:02:26.518Z,5.79
2022-10-05T05:03:26.549Z,5.76
2022-10-05T05:04:26.502Z,5.79
2022-10-05T05:05:26.524Z,5.72
2022-10-05T05:06:26.480Z,5.80
2022-10-05T05:07:26.476Z,5.76
2022-10-05T05:08:26.482Z,5.80
2022-10-05T05:09:26.456Z,5.79
2022-10-05T05:10:26.487Z,5.83
2022-10-05T05:11:26.440Z,5.77
2022-10-05T05:12:26.440Z,5.74
2022-10-05T05:13:26.429Z,5.76
2022-10-05T05:14:26.414Z,5.79
2022-10-05T05:15:26.476Z,5.86
2022-10-05T05:16:26.419Z,5.77
2022-10-05T05:17:26.393Z,5.82
2022-10-05T05:18:26.392Z,5.85
2022-10-05T05:19:26.372Z,5.83
2022-10-05T05:20:26.392Z,5.82
2022-10-05T05:21:26.361Z,5.83
2022-10-05T05:25:16.108Z,5.95
2022-10-05T05:26:16.153Z,6.03
2022-10-05T05:27:16.114Z,6.15
2022-10-05T05:28:16.162Z,6.11
2022-10-05T05:29:16.101Z,6.13
2022-10-05T05:30:16.098Z,6.03
2022-10-05T05:31:16.161Z,6.04
2022-10-05T05:32:16.083Z,6.08
2022-10-05T05:33:16.073Z,6.13
2022-10-05T05:34:16.069Z,6.24
2022-10-05T05:35:16.055Z,6.21
2022-10-05T05:36:20.768Z,6.18
2022-10-05T05:37:17.042Z,6.24
2022-10-05T05:38:16.037Z,6.35
2022-10-05T05:39:17.164Z,6.34
2022-10-05T05:40:17.157Z,6.47
2022-10-05T05:41:17.181Z,6.41
2022-10-05T05:42:17.142Z,6.38
2022-10-05T05:43:17.140Z,6.47
2022-10-05T05:44:17.138Z,6.37
2022-10-05T05:45:17.125Z,6.42
2022-10-05T05:46:17.206Z,6.45
2022-10-05T05:47:17.299Z,6.47
2022-10-05T05:48:17.096Z,6.59
2022-10-05T05:49:17.091Z,6.53
2022-10-05T05:50:17.087Z,6.53
2022-10-05T05:51:17.102Z,6.48
2022-10-05T05:52:17.088Z,6.59
2022-10-05T05:53:17.064Z,6.55
2022-10-05T05:54:17.048Z,6.60
2022-10-05T05:55:17.037Z,6.56
2022-10-05T05:56:17.060Z,6.57
2022-10-05T05:57:17.069Z,6.45
2022-10-05T05:58:17.012Z,6.52
2022-10-05T05:59:17.004Z,6.47
2022-10-05T06:00:16.996Z,6.47
2022-10-05T06:01:32.289Z,6.56
2022-10-05T06:02:19.069Z,6.70
2022-10-05T06:03:17.130Z,6.78
2022-10-05T06:04:16.964Z,6.78
2022-10-05T06:05:16.957Z,6.78
2022-10-05T06:06:16.969Z,6.96
2022-10-05T06:07:16.939Z,6.99
2022-10-05T06:08:16.929Z,7.20
2022-10-05T06:09:16.917Z,7.28
2022-10-05T06:10:16.914Z,7.32
2022-10-05T06:11:16.935Z,7.26
2022-10-05T06:12:16.900Z,7.23
2022-10-05T06:13:16.889Z,7.28
2022-10-05T06:14:16.886Z,7.16
2022-10-05T06:15:16.869Z,7.31
2022-10-05T06:16:16.943Z,7.18
2022-10-05T06:17:16.856Z,7.21
2022-10-05T06:18:16.843Z,7.23
2022-10-05T06:19:16.850Z,7.21
2022-10-05T06:20:16.830Z,7.47
2022-10-05T06:21:16.854Z,8.11
2022-10-05T06:22:16.812Z,8.59
2022-10-05T06:23:16.800Z,8.87
2022-10-05T06:24:16.807Z,8.87
2022-10-05T06:25:16.783Z,9.34
2022-10-05T06:26:16.777Z,9.55
2022-10-05T06:27:16.803Z,9.72
2022-10-05T06:28:16.838Z,9.79
2022-10-05T06:29:16.754Z,10.00
2022-10-05T06:30:16.747Z,10.30
2022-10-05T06:31:16.800Z,10.57
2022-10-05T06:32:16.740Z,10.78
2022-10-05T06:33:16.720Z,10.74
2022-10-05T06:34:16.714Z,10.77
2022-10-05T06:35:16.712Z,10.86
2022-10-05T06:36:16.731Z,10.75
2022-10-05T06:37:16.686Z,10.31
2022-10-05T06:38:16.673Z,10.86
2022-10-05T06:39:16.676Z,10.96
2022-10-05T06:40:16.665Z,11.23
2022-10-05T06:41:16.699Z,11.25
2022-10-05T06:42:16.651Z,11.35
2022-10-05T06:43:16.643Z,11.40
2022-10-05T06:44:16.632Z,11.50
2022-10-05T06:45:17.618Z,11.91
2022-10-05T06:46:16.687Z,11.87
2022-10-05T06:47:16.602Z,11.66
2022-10-05T06:48:16.596Z,11.48
2022-10-05T06:49:16.593Z,10.85
2022-10-05T06:50:16.578Z,10.57
2022-10-05T06:51:16.591Z,10.33
2022-10-05T06:52:16.593Z,9.73
2022-10-05T06:53:16.548Z,9.57
2022-10-05T06:54:16.548Z,9.37
2022-10-05T06:55:16.535Z,9.25
2022-10-05T06:56:16.528Z,9.25
2022-10-05T06:57:16.552Z,9.16
2022-10-05T06:58:16.526Z,9.11
2022-10-05T06:59:16.505Z,9.14
2022-10-05T07:00:16.492Z,9.33
2022-10-05T07:01:16.508Z,9.28
2022-10-05T07:02:16.543Z,9.24
2022-10-05T07:03:16.472Z,9.25
2022-10-05T07:04:16.457Z,9.42
2022-10-05T07:05:16.450Z,9.46
2022-10-05T07:06:16.442Z,9.40
2022-10-05T07:07:16.486Z,9.54
2022-10-05T07:08:16.417Z,9.47
2022-10-05T07:09:16.410Z,9.57
2022-10-05T07:10:16.403Z,9.49
2022-10-05T07:11:16.402Z,9.64
2022-10-05T07:12:16.434Z,9.54
2022-10-05T07:13:16.379Z,9.55
2022-10-05T07:14:16.378Z,9.37
2022-10-05T07:15:16.365Z,9.52
2022-10-05T07:16:16.496Z,9.55
2022-10-05T07:17:16.351Z,9.54
2022-10-05T07:18:16.342Z,9.64
2022-10-05T07:19:16.327Z,9.69
2022-10-05T07:20:16.320Z,9.86
2022-10-05T07:21:16.350Z,9.72
2022-10-05T07:22:16.316Z,9.82
2022-10-05T07:23:16.299Z,9.82
2022-10-05T07:24:16.293Z,9.88
2022-10-05T07:25:16.286Z,10.02
2022-10-05T07:26:16.314Z,10.01
2022-10-05T07:27:16.264Z,10.18
2022-10-05T07:28:16.336Z,10.22
2022-10-05T07:29:16.259Z,10.27
2022-10-05T07:30:16.333Z,10.46
2022-10-05T07:31:16.320Z,10.52
2022-10-05T07:32:16.229Z,10.67
2022-10-05T07:33:16.219Z,10.75
2022-10-05T07:34:16.245Z,10.92
2022-10-05T07:35:16.213Z,11.01
2022-10-05T07:36:16.239Z,11.14
2022-10-05T07:37:16.218Z,11.59
2022-10-05T07:38:16.178Z,12.88
2022-10-05T07:39:16.230Z,13.78
2022-10-05T07:40:16.163Z,14.55
2022-10-05T07:41:16.161Z,15.07
2022-10-05T07:42:16.173Z,15.30
2022-10-05T07:43:16.138Z,15.65
2022-10-05T07:44:16.133Z,15.54
2022-10-05T07:45:16.123Z,15.73
2022-10-05T07:46:16.216Z,16.17
2022-10-05T07:47:16.102Z,16.87
2022-10-05T07:48:16.094Z,16.53
2022-10-05T07:49:16.088Z,15.98
2022-10-05T07:50:16.126Z,15.54
2022-10-05T07:51:16.095Z,15.15
2022-10-05T07:52:16.056Z,14.91
2022-10-05T07:53:16.051Z,15.22
2022-10-05T07:54:16.047Z,15.03
2022-10-05T07:55:16.026Z,15.00
2022-10-05T07:56:16.043Z,14.55
2022-10-05T07:57:16.015Z,14.10
2022-10-05T07:58:16.010Z,13.89
2022-10-05T07:59:15.993Z,13.83
2022-10-05T08:00:15.987Z,13.90
2022-10-05T08:01:16.015Z,13.96
2022-10-05T08:02:16.115Z,14.14
2022-10-05T08:03:16.041Z,14.18
2022-10-05T08:04:15.954Z,14.15
2022-10-05T08:05:15.938Z,14.04
2022-10-05T08:06:15.962Z,13.95
2022-10-05T08:07:16.004Z,14.03
2022-10-05T08:08:18.179Z,13.96
2022-10-05T08:09:15.910Z,13.95
2022-10-05T08:10:15.908Z,13.88
2022-10-05T08:11:15.926Z,13.82
2022-10-05T08:12:15.889Z,13.80
2022-10-05T08:13:15.879Z,13.96
2022-10-05T08:14:15.866Z,14.23
2022-10-05T08:15:15.860Z,14.14
2022-10-05T08:16:15.958Z,14.20
2022-10-05T08:17:15.846Z,14.40
2022-10-05T08:18:15.833Z,14.62
2022-10-05T08:19:15.831Z,14.82
2022-10-05T08:20:15.818Z,14.82
2022-10-05T08:21:15.836Z,14.84
2022-10-05T08:22:15.801Z,14.89
2022-10-05T08:23:15.788Z,14.91
2022-10-05T08:24:15.782Z,15.00
2022-10-05T08:25:15.813Z,14.96
2022-10-05T08:26:15.875Z,14.88
2022-10-05T08:27:15.757Z,14.82
2022-10-05T08:28:15.812Z,14.97
2022-10-05T08:29:15.742Z,14.96
2022-10-05T08:30:15.734Z,15.04
2022-10-05T08:31:15.786Z,15.04
2022-10-05T08:32:15.729Z,15.06
2022-10-05T08:33:15.698Z,15.09
2022-10-05T08:34:15.712Z,15.04
2022-10-05T08:35:15.676Z,14.89
2022-10-05T08:36:15.708Z,14.96
2022-10-05T08:37:15.667Z,14.89
2022-10-05T08:38:15.664Z,14.85
2022-10-05T08:39:15.654Z,14.79
2022-10-05T08:40:15.646Z,14.66
2022-10-05T08:41:15.665Z,14.65
2022-10-05T08:42:15.624Z,14.63
2022-10-05T08:43:15.618Z,14.66
2022-10-05T08:44:15.621Z,14.63
2022-10-05T08:45:15.612Z,14.69
2022-10-05T08:46:15.666Z,14.79
2022-10-05T08:47:15.584Z,14.78
2022-10-05T08:48:15.583Z,14.79
2022-10-05T08:49:15.584Z,14.84
2022-10-05T08:50:15.564Z,14.81
2022-10-05T08:51:15.595Z,14.74
2022-10-05T08:52:15.549Z,14.66
2022-10-05T08:53:15.568Z,14.65
2022-10-05T08:54:15.526Z,14.56
2022-10-05T08:55:15.519Z,14.78
2022-10-05T08:56:19.837Z,14.85
2022-10-05T08:57:17.501Z,14.93
2022-10-05T08:58:15.497Z,14.93
2022-10-05T08:59:15.495Z,14.93
2022-10-05T09:00:15.475Z,15.02
2022-10-05T09:01:15.524Z,15.04
2022-10-05T09:02:15.497Z,15.11
2022-10-05T09:03:15.454Z,15.24
2022-10-05T09:04:15.441Z,15.25
2022-10-05T09:05:15.433Z,15.27
2022-10-05T09:06:15.451Z,15.40
2022-10-05T09:07:15.421Z,15.48
2022-10-05T09:08:15.408Z,15.55
2022-10-05T09:09:15.398Z,15.70
2022-10-05T09:10:15.394Z,15.73
2022-10-05T09:11:15.411Z,15.75
2022-10-05T09:12:15.375Z,15.68
2022-10-05T09:13:15.366Z,15.65
2022-10-05T09:14:15.371Z,15.70
2022-10-05T09:15:25.396Z,15.65
2022-10-05T09:16:17.469Z,15.75
2022-10-05T09:17:15.324Z,15.73
2022-10-05T09:18:16.367Z,15.48
2022-10-05T09:19:15.317Z,15.58
2022-10-05T09:20:15.314Z,15.62
2022-10-05T09:21:15.329Z,15.80
2022-10-05T09:22:15.293Z,15.77
2022-10-05T09:23:15.276Z,15.73
2022-10-05T09:24:15.283Z,15.88
2022-10-05T09:25:15.260Z,15.91
2022-10-05T09:26:15.319Z,15.98
2022-10-05T09:27:15.250Z,15.91
2022-10-05T09:28:15.267Z,15.97
2022-10-05T09:29:15.230Z,16.00
2022-10-05T09:30:15.213Z,16.21
2022-10-05T09:31:16.341Z,16.24
2022-10-05T09:32:16.592Z,16.29
2022-10-05T09:33:16.195Z,16.56
2022-10-05T09:34:15.188Z,16.66
2022-10-05T09:35:15.177Z,16.80
2022-10-05T09:36:15.205Z,16.76
2022-10-05T09:37:15.167Z,16.84
2022-10-05T09:38:15.150Z,17.02
2022-10-05T09:39:15.145Z,16.99
2022-10-05T09:40:15.134Z,17.16
2022-10-05T09:41:15.127Z,17.49
2022-10-05T09:42:15.145Z,17.51
2022-10-05T09:43:15.107Z,17.64
2022-10-05T09:44:15.101Z,17.78
2022-10-05T09:45:19.035Z,17.85
2022-10-05T09:46:17.099Z,17.94
2022-10-05T09:47:15.107Z,18.22
2022-10-05T09:48:15.071Z,18.25
2022-10-05T09:49:15.053Z,17.88
2022-10-05T09:50:15.047Z,17.86
2022-10-05T09:51:15.051Z,17.94
2022-10-05T09:52:18.786Z,17.86
2022-10-05T09:53:16.031Z,17.94
2022-10-05T09:54:15.032Z,18.16
2022-10-05T09:55:15.018Z,18.19
2022-10-05T09:56:15.067Z,18.28
2022-10-05T09:57:15.030Z,18.35
2022-10-05T09:58:14.991Z,18.98
2022-10-05T09:59:14.983Z,18.59
2022-10-05T10:00:14.979Z,18.40
2022-10-05T10:01:32.197Z,18.44
2022-10-05T10:02:17.244Z,18.26
2022-10-05T10:03:14.978Z,18.28
2022-10-05T10:04:14.936Z,18.26
2022-10-05T10:05:14.951Z,18.18
2022-10-05T10:06:14.934Z,18.12
2022-10-05T10:07:14.943Z,18.43
2022-10-05T10:08:14.899Z,18.77
2022-10-05T10:09:14.895Z,18.71
2022-10-05T10:10:14.888Z,18.43
2022-10-05T10:11:14.878Z,18.43
2022-10-05T10:12:14.897Z,18.62
2022-10-05T10:13:14.857Z,18.67
2022-10-05T10:14:14.855Z,19.09
2022-10-05T10:15:14.840Z,19.54
2022-10-05T10:16:14.933Z,19.86
2022-10-05T10:17:14.857Z,19.45
2022-10-05T10:18:14.818Z,19.29
2022-10-05T10:19:14.814Z,19.22
2022-10-05T10:20:14.802Z,19.07
2022-10-05T10:21:14.800Z,18.62
2022-10-05T10:22:14.815Z,18.46
2022-10-05T10:23:14.778Z,18.48
2022-10-05T10:24:14.768Z,18.63
2022-10-05T10:25:14.761Z,18.86
2022-10-05T10:26:14.752Z,19.04
2022-10-05T10:27:14.781Z,19.63
2022-10-05T10:28:14.821Z,19.54
2022-10-05T10:29:14.780Z,19.55
2022-10-05T10:30:14.729Z,20.56
2022-10-05T10:31:14.770Z,20.41
2022-10-05T10:32:14.731Z,20.47
2022-10-05T10:33:14.695Z,20.84
2022-10-05T10:34:14.685Z,20.92
2022-10-05T10:35:14.685Z,21.03
2022-10-05T10:36:14.671Z,20.21
2022-10-05T10:37:14.705Z,20.37
2022-10-05T10:38:14.655Z,20.36
2022-10-05T10:39:14.650Z,20.93
2022-10-05T10:40:14.639Z,20.26
2022-10-05T10:41:14.640Z,19.91
2022-10-05T10:42:14.652Z,19.46
2022-10-05T10:43:14.612Z,19.81
2022-10-05T10:44:14.615Z,19.91
2022-10-05T10:45:14.591Z,19.82
2022-10-05T10:46:14.642Z,19.66
2022-10-05T10:47:14.626Z,19.67
2022-10-05T10:48:14.573Z,19.66
2022-10-05T10:49:14.731Z,19.55
2022-10-05T10:50:14.547Z,19.42
2022-10-05T10:51:14.543Z,19.63
2022-10-05T10:52:14.559Z,19.54
2022-10-05T10:53:14.529Z,19.54
2022-10-05T10:54:14.520Z,19.48
2022-10-05T10:55:14.517Z,19.44
2022-10-05T10:56:14.505Z,19.49
2022-10-05T10:57:14.527Z,19.52
2022-10-05T10:58:16.250Z,19.45
2022-10-05T10:59:15.493Z,19.37
2022-10-05T11:00:14.489Z,19.39
2022-10-05T11:01:14.493Z,19.37
2022-10-05T11:02:14.566Z,19.36
2022-10-05T11:03:14.529Z,19.18
2022-10-05T11:04:14.432Z,19.26
2022-10-05T11:05:14.428Z,19.49
2022-10-05T11:06:14.409Z,19.73
2022-10-05T11:07:14.403Z,19.66
2022-10-05T11:08:14.433Z,19.79
2022-10-05T11:09:14.394Z,19.79
2022-10-05T11:10:14.384Z,19.55
2022-10-05T11:11:14.390Z,20.06
2022-10-05T11:12:14.373Z,20.89
2022-10-05T11:13:14.387Z,21.17
2022-10-05T11:14:14.358Z,21.55
2022-10-05T11:15:14.338Z,22.26
2022-10-05T11:16:17.183Z,22.23
2022-10-05T11:17:15.329Z,22.75
2022-10-05T11:18:14.363Z,23.80
2022-10-05T11:19:14.314Z,24.45
2022-10-05T11:20:14.304Z,25.00
2022-10-05T11:21:14.297Z,25.45
2022-10-05T11:22:14.332Z,26.19
2022-10-05T11:23:14.308Z,26.16
2022-10-05T11:24:14.270Z,26.60
2022-10-05T11:25:14.263Z,26.00
2022-10-05T11:26:14.270Z,24.98
2022-10-05T11:27:14.286Z,25.60
2022-10-05T11:28:14.383Z,25.33
2022-10-05T11:29:14.231Z,25.75
2022-10-05T11:30:14.232Z,25.58
2022-10-05T11:31:14.239Z,25.35
2022-10-05T11:32:14.203Z,25.78
2022-10-05T11:33:14.268Z,24.03
2022-10-05T11:34:14.190Z,22.93
2022-10-05T11:35:14.181Z,23.14
2022-10-05T11:36:14.181Z,23.52
2022-10-05T11:37:14.170Z,23.46
2022-10-05T11:38:14.184Z,24.05
2022-10-05T11:39:14.161Z,24.62
2022-10-05T11:40:14.200Z,23.98
2022-10-05T11:41:14.134Z,24.44
2022-10-05T11:42:14.121Z,24.57
2022-10-05T11:43:14.146Z,24.76
2022-10-05T11:44:14.102Z,24.89
2022-10-05T11:45:14.102Z,25.66
2022-10-05T11:46:14.133Z,25.80
2022-10-05T11:47:14.084Z,25.95
2022-10-05T11:48:14.102Z,25.88
2022-10-05T11:49:14.094Z,25.14
2022-10-05T11:50:14.117Z,25.70
2022-10-05T11:51:14.078Z,25.96
2022-10-05T11:52:14.089Z,25.30
2022-10-05T11:53:14.068Z,25.73
2022-10-05T11:54:14.030Z,26.16
2022-10-05T11:55:14.023Z,26.49
2022-10-05T11:56:14.008Z,26.12
2022-10-05T11:57:14.062Z,25.23
2022-10-05T11:58:14.038Z,25.04
2022-10-05T11:59:14.029Z,25.00
2022-10-05T12:00:14.082Z,24.98
2022-10-05T12:01:14.027Z,25.13
2022-10-05T12:02:14.002Z,24.40
2022-10-05T12:03:15.091Z,23.98
2022-10-05T12:04:13.974Z,24.43
2022-10-05T12:05:13.939Z,24.76
2022-10-05T12:06:13.926Z,24.50
2022-10-05T12:07:13.925Z,24.83
2022-10-05T12:08:13.949Z,25.35
2022-10-05T12:09:13.926Z,25.28
2022-10-05T12:10:13.998Z,25.23
2022-10-05T12:11:13.890Z,25.15
2022-10-05T12:12:14.887Z,24.82
2022-10-05T12:13:13.902Z,25.25
2022-10-05T12:14:13.877Z,24.82
2022-10-05T12:15:13.866Z,24.74
2022-10-05T12:16:13.885Z,24.78
2022-10-05T12:17:13.860Z,25.00
2022-10-05T12:18:13.883Z,25.35
2022-10-05T12:19:13.827Z,25.53
2022-10-05T12:20:13.926Z,25.96
2022-10-05T12:21:13.818Z,25.99
2022-10-05T12:22:13.816Z,25.53
2022-10-05T12:23:13.810Z,25.82
2022-10-05T12:24:13.823Z,25.55
2022-10-05T12:25:13.795Z,25.23
2022-10-05T12:26:13.782Z,25.45
2022-10-05T12:27:13.774Z,26.18
2022-10-05T12:28:13.810Z,25.67
2022-10-05T12:29:13.796Z,25.75
2022-10-05T12:30:13.883Z,25.56
2022-10-05T12:31:13.870Z,25.25
2022-10-05T12:32:13.732Z,25.78
2022-10-05T12:33:13.717Z,26.16
2022-10-05T12:34:13.746Z,26.34
2022-10-05T12:35:13.712Z,26.77
2022-10-05T12:36:13.708Z,26.70
2022-10-05T12:37:13.766Z,26.62
2022-10-05T12:38:13.677Z,26.11
2022-10-05T12:39:13.705Z,26.20
2022-10-05T12:40:13.661Z,25.69
2022-10-05T12:41:13.656Z,25.77
2022-10-05T12:42:13.681Z,25.80
2022-10-05T12:43:13.646Z,25.18
2022-10-05T12:44:13.668Z,25.45
2022-10-05T12:45:13.625Z,25.23
2022-10-05T12:46:13.673Z,25.18
2022-10-05T12:47:13.605Z,25.45
2022-10-05T12:48:13.603Z,25.48
2022-10-05T12:49:13.622Z,25.11
2022-10-05T12:50:13.582Z,25.29
2022-10-05T12:51:13.580Z,24.98
2022-10-05T12:52:13.570Z,24.88
2022-10-05T12:53:13.570Z,25.06
2022-10-05T12:54:13.593Z,25.65
2022-10-05T12:55:13.548Z,25.69
2022-10-05T12:56:14.057Z,25.51
2022-10-05T12:57:13.533Z,25.66
2022-10-05T12:58:13.576Z,26.45
2022-10-05T12:59:13.565Z,27.26
2022-10-05T13:00:13.508Z,26.81
2022-10-05T13:01:13.530Z,26.12
2022-10-05T13:02:13.509Z,25.74
2022-10-05T13:03:13.487Z,25.35
2022-10-05T13:04:13.500Z,24.85
2022-10-05T13:05:13.464Z,24.65
2022-10-05T13:06:13.883Z,24.57
2022-10-05T13:07:13.460Z,24.93
2022-10-05T13:08:13.445Z,24.82
2022-10-05T13:09:13.455Z,24.52